Time;durP1;ratioP1;P1;durP2;ratioP2;P2;SDS_P1;SDS_P2;PMS_P1;PMS_P2;Temp;Humidity;BMP_temperature;BMP_pressure;BME280_temperature;BME280_humidity;BME280_pressure;Samples;Min_cycle;Max_cycle;Signal;HPM_P1;HPM_P2
2020/12/14 00:00:37;;;;;;;;;;;1.60;99.90;;;;;;5033847;28;20319;-74
2020/12/14 00:03:03;;;;;;;;;;;1.60;99.90;;;;;;5037794;28;19909;-75
2020/12/14 00:05:28;;;;;;;;;;;1.60;99.90;;;;;;5037721;28;19921;-75
2020/12/14 00:07:54;;;;;;;;;;;1.50;99.90;;;;;;5034364;28;20004;-75
2020/12/14 00:10:20;;;;;;;;;;;1.40;99.90;;;;;;5015327;28;19910;-76
2020/12/14 00:12:46;;;;;;;;;;;1.30;99.90;;;;;;5012269;28;20004;-75
2020/12/14 00:15:11;;;;;;;;;;;1.30;99.90;;;;;;5013651;28;20029;-75
2020/12/14 00:17:37;;;;;;;;;;;1.30;99.90;;;;;;5013724;28;19910;-75
2020/12/14 00:20:03;;;;;;;;;;;1.30;99.90;;;;;;5014031;28;19910;-75
2020/12/14 00:22:29;;;;;;;;;;;1.20;99.90;;;;;;5012573;28;19917;-75
2020/12/14 00:24:55;;;;;;;;;;;1.20;99.90;;;;;;5013897;28;19909;-75
2020/12/14 00:27:20;;;;;;;;;;;1.20;99.90;;;;;;5012985;28;19916;-74
2020/12/14 00:29:46;;;;;;;;;;;1.20;99.90;;;;;;5031554;28;20320;-75
2020/12/14 00:32:11;;;;;;;;;;;1.10;99.90;;;;;;5032495;28;19909;-75
2020/12/14 00:34:37;;;;;;;;;;;1.10;99.90;;;;;;5033317;28;19909;-75
2020/12/14 00:37:03;;;;;;;;;;;1.10;99.90;;;;;;5028053;28;19928;-74
2020/12/14 00:39:28;;;;;;;;;;;1.10;99.90;;;;;;5009875;28;19961;-74
2020/12/14 00:41:54;;;;;;;;;;;1.00;99.90;;;;;;5012700;28;20374;-75
2020/12/14 00:44:19;;;;;;;;;;;1.00;99.90;;;;;;5013221;28;20420;-75
2020/12/14 00:46:45;;;;;;;;;;;1.00;99.90;;;;;;5011560;28;19919;-74
2020/12/14 00:49:10;;;;;;;;;;;1.00;99.90;;;;;;5011769;28;20285;-73
2020/12/14 00:51:36;;;;;;;;;;;1.00;99.90;;;;;;5010349;28;19909;-74
2020/12/14 00:54:01;;;;;;;;;;;1.00;99.90;;;;;;5012300;28;20382;-75
2020/12/14 00:56:27;;;;;;;;;;;0.90;99.90;;;;;;5011451;28;19933;-74
2020/12/14 00:58:52;;;;;;;;;;;0.90;99.90;;;;;;5012803;28;20055;-75
2020/12/14 01:01:18;;;;;;;;;;;0.90;99.90;;;;;;5011624;28;19928;-75
2020/12/14 01:03:44;;;;;;;;;;;0.90;99.90;;;;;;5012473;28;20252;-74
2020/12/14 01:06:09;;;;;;;;;;;0.90;99.90;;;;;;5010860;28;19913;-74
2020/12/14 01:08:35;;;;;;;;;;;1.00;99.90;;;;;;5012732;28;19910;-75
2020/12/14 01:11:00;;;;;;;;;;;0.90;99.90;;;;;;5012557;28;19916;-74
2020/12/14 01:13:27;;;;;;;;;;;0.90;99.90;;;;;;5027793;28;20015;-74
2020/12/14 01:15:52;;;;;;;;;;;0.90;99.90;;;;;;5030500;28;19909;-74
2020/12/14 01:18:18;;;;;;;;;;;0.90;99.90;;;;;;5032759;28;19916;-74
2020/12/14 01:20:44;;;;;;;;;;;0.90;99.90;;;;;;5030623;28;19914;-73
2020/12/14 01:23:09;;;;;;;;;;;0.80;99.90;;;;;;5031839;28;19915;-72
2020/12/14 01:25:35;;;;;;;;;;;0.80;99.90;;;;;;5031744;28;19909;-74
2020/12/14 01:28:01;;;;;;;;;;;0.80;99.90;;;;;;5031735;28;19920;-74
2020/12/14 01:30:27;;;;;;;;;;;0.80;99.90;;;;;;5031910;28;19966;-74
2020/12/14 01:32:52;;;;;;;;;;;0.80;99.90;;;;;;5031754;28;19909;-75
2020/12/14 01:35:18;;;;;;;;;;;0.80;99.90;;;;;;5031590;28;20408;-74
2020/12/14 01:37:43;;;;;;;;;;;0.80;99.90;;;;;;5030056;28;19916;-75
2020/12/14 01:40:09;;;;;;;;;;;0.80;99.90;;;;;;5031594;28;19916;-74
2020/12/14 01:42:41;;;;;;;;;;;0.70;99.90;;;;;;5028277;28;19948;-75
2020/12/14 01:45:07;;;;;;;;;;;0.70;99.90;;;;;;5011805;28;19913;-74
2020/12/14 01:47:42;;;;;;;;;;;0.70;99.90;;;;;;5011416;28;19916;-74
2020/12/14 01:50:11;;;;;;;;;;;0.70;99.90;;;;;;5011748;28;20405;-74
2020/12/14 01:52:39;;;;;;;;;;;0.60;99.90;;;;;;5011660;28;20025;-74
2020/12/14 01:55:06;;;;;;;;;;;0.60;99.90;;;;;;5011817;28;20278;-74
2020/12/14 01:57:32;;;;;;;;;;;0.50;99.90;;;;;;5011367;28;20119;-75
2020/12/14 01:59:57;;;;;;;;;;;0.50;99.90;;;;;;5011738;28;20207;-74
2020/12/14 02:02:24;;;;;;;;;;;0.50;99.90;;;;;;5011687;28;19920;-74
2020/12/14 02:04:49;;;;;;;;;;;0.40;99.90;;;;;;5011511;28;20362;-74
2020/12/14 02:07:15;;;;;;;;;;;0.50;99.90;;;;;;5011229;28;19910;-74
2020/12/14 02:09:40;;;;;;;;;;;0.40;99.90;;;;;;5011492;28;19909;-73
2020/12/14 02:12:06;;;;;;;;;;;0.40;99.90;;;;;;5016161;28;20357;-74
2020/12/14 02:14:31;;;;;;;;;;;0.40;99.90;;;;;;5012117;28;19916;-74
2020/12/14 02:16:57;;;;;;;;;;;0.40;99.90;;;;;;5010980;28;19997;-74
2020/12/14 02:19:22;;;;;;;;;;;0.40;99.90;;;;;;5015145;28;19949;-74
2020/12/14 02:21:51;;;;;;;;;;;0.30;99.90;;;;;;5013951;28;19924;-74
2020/12/14 02:24:17;;;;;;;;;;;0.30;99.90;;;;;;5013875;28;20055;-74
2020/12/14 02:26:48;;;;;;;;;;;0.30;99.90;;;;;;5014781;28;19917;-75
2020/12/14 02:29:14;;;;;;;;;;;0.30;99.90;;;;;;5015139;28;19916;-74
2020/12/14 02:31:39;;;;;;;;;;;0.30;99.90;;;;;;5014984;28;19910;-74
2020/12/14 02:34:05;;;;;;;;;;;0.20;99.90;;;;;;5013680;28;20008;-74
2020/12/14 02:36:30;;;;;;;;;;;0.20;99.90;;;;;;5014635;28;19916;-74
2020/12/14 02:38:55;;;;;;;;;;;0.10;99.90;;;;;;5015340;28;19915;-74
2020/12/14 02:41:21;;;;;;;;;;;0.10;99.90;;;;;;5014706;28;19918;-73
2020/12/14 02:43:46;;;;;;;;;;;0.10;99.90;;;;;;5021627;28;19910;-74
2020/12/14 02:46:12;;;;;;;;;;;0.10;99.90;;;;;;5013009;28;19909;-74
2020/12/14 02:48:37;;;;;;;;;;;0.10;99.90;;;;;;5013336;28;19917;-74
2020/12/14 02:51:03;;;;;;;;;;;0.10;99.90;;;;;;5014668;28;20008;-74
2020/12/14 02:53:28;;;;;;;;;;;0.10;99.90;;;;;;5014408;28;19913;-74
2020/12/14 02:55:54;;;;;;;;;;;0.10;99.90;;;;;;5012864;28;19980;-74
2020/12/14 02:58:19;;;;;;;;;;;0.20;99.90;;;;;;5013358;28;19917;-74
2020/12/14 03:00:47;;;;;;;;;;;0.20;99.90;;;;;;5014765;28;19913;-74
2020/12/14 03:03:12;;;;;;;;;;;0.20;99.90;;;;;;5014320;28;20015;-74
2020/12/14 03:05:38;;;;;;;;;;;0.30;99.90;;;;;;5014101;28;19999;-72
2020/12/14 03:08:03;;;;;;;;;;;0.30;99.90;;;;;;5014166;28;20018;-74
2020/12/14 03:10:29;;;;;;;;;;;0.30;99.90;;;;;;5014453;28;19913;-74
2020/12/14 03:12:54;;;;;;;;;;;0.30;99.90;;;;;;5021127;28;19949;-74
2020/12/14 03:15:20;;;;;;;;;;;0.30;99.90;;;;;;5014061;28;19910;-74
2020/12/14 03:17:45;;;;;;;;;;;0.20;99.90;;;;;;5012565;28;20219;-74
2020/12/14 03:20:10;;;;;;;;;;;0.30;99.90;;;;;;5013030;28;20278;-74
2020/12/14 03:22:36;;;;;;;;;;;0.30;99.90;;;;;;5013849;28;19975;-73
2020/12/14 03:25:02;;;;;;;;;;;0.30;99.90;;;;;;5014051;28;19910;-74
2020/12/14 03:27:27;;;;;;;;;;;0.30;99.90;;;;;;5013728;28;19945;-74
2020/12/14 03:29:53;;;;;;;;;;;0.20;99.90;;;;;;5013756;28;19909;-74
2020/12/14 03:32:18;;;;;;;;;;;0.20;99.90;;;;;;5014086;28;19913;-73
2020/12/14 03:34:44;;;;;;;;;;;0.20;99.90;;;;;;5013964;28;19955;-74
2020/12/14 03:37:09;;;;;;;;;;;0.20;99.90;;;;;;5013322;28;19932;-74
2020/12/14 03:39:34;;;;;;;;;;;0.10;99.90;;;;;;5013732;28;19909;-74
2020/12/14 03:42:00;;;;;;;;;;;0.10;99.90;;;;;;5018871;28;20341;-74
2020/12/14 03:44:25;;;;;;;;;;;0.10;99.90;;;;;;5015057;28;19909;-73
2020/12/14 03:46:51;;;;;;;;;;;0.10;99.90;;;;;;5011931;28;19909;-74
2020/12/14 03:49:16;;;;;;;;;;;0.00;99.90;;;;;;5013404;28;19920;-72
2020/12/14 03:51:42;;;;;;;;;;;0.00;99.90;;;;;;5012188;28;20428;-74
2020/12/14 03:54:07;;;;;;;;;;;0.00;99.90;;;;;;5012302;28;19914;-74
2020/12/14 03:56:33;;;;;;;;;;;-0.10;99.90;;;;;;5011746;28;20012;-72
2020/12/14 03:59:00;;;;;;;;;;;-0.10;99.90;;;;;;5013376;28;19920;-74
2020/12/14 04:01:26;;;;;;;;;;;0.00;99.90;;;;;;5013266;28;20381;-74
2020/12/14 04:03:51;;;;;;;;;;;-0.10;99.90;;;;;;5012028;28;19909;-73
2020/12/14 04:06:21;;;;;;;;;;;-0.10;99.90;;;;;;5012826;28;20366;-74
2020/12/14 04:08:46;;;;;;;;;;;-0.10;99.90;;;;;;5011865;28;20333;-74
2020/12/14 04:11:12;;;;;;;;;;;-0.10;99.90;;;;;;5013126;28;19909;-73
2020/12/14 04:13:37;;;;;;;;;;;-0.20;99.90;;;;;;5019961;28;19909;-73
2020/12/14 04:16:03;;;;;;;;;;;-0.20;99.90;;;;;;5012413;28;19909;-74
2020/12/14 04:18:28;;;;;;;;;;;-0.20;99.90;;;;;;5013105;28;19917;-74
2020/12/14 04:20:55;;;;;;;;;;;-0.20;99.90;;;;;;5011611;28;20355;-73
2020/12/14 04:23:20;;;;;;;;;;;-0.20;99.90;;;;;;5011500;28;19917;-74
2020/12/14 04:25:46;;;;;;;;;;;-0.20;99.90;;;;;;5011310;28;20450;-74
2020/12/14 04:28:11;;;;;;;;;;;-0.30;99.90;;;;;;5012782;28;19917;-74
2020/12/14 04:30:37;;;;;;;;;;;-0.30;99.90;;;;;;5011450;28;20000;-74
2020/12/14 04:33:02;;;;;;;;;;;-0.30;99.90;;;;;;5012618;28;19963;-74
2020/12/14 04:35:28;;;;;;;;;;;-0.30;99.90;;;;;;5012594;28;19960;-73
2020/12/14 04:37:53;;;;;;;;;;;-0.30;99.90;;;;;;5011031;28;19996;-73
2020/12/14 04:40:20;;;;;;;;;;;-0.30;99.90;;;;;;5011991;28;19921;-74
2020/12/14 04:42:49;;;;;;;;;;;-0.30;99.90;;;;;;5019367;28;19992;-73
2020/12/14 04:45:15;;;;;;;;;;;-0.30;99.90;;;;;;5012194;28;20004;-73
2020/12/14 04:47:41;;;;;;;;;;;-0.30;99.90;;;;;;5012149;28;19952;-73
2020/12/14 04:50:08;;;;;;;;;;;-0.30;99.90;;;;;;5012272;28;19924;-73
2020/12/14 04:52:36;;;;;;;;;;;-0.30;99.90;;;;;;5012231;28;19949;-72
2020/12/14 04:55:03;;;;;;;;;;;-0.30;99.90;;;;;;5012380;28;19916;-74
2020/12/14 04:57:30;;;;;;;;;;;-0.30;99.90;;;;;;5010702;28;20421;-73
2020/12/14 04:59:56;;;;;;;;;;;-0.30;99.90;;;;;;5012240;28;19913;-73
2020/12/14 05:02:22;;;;;;;;;;;-0.30;99.90;;;;;;5011988;28;19920;-73
2020/12/14 05:04:47;;;;;;;;;;;-0.40;99.90;;;;;;5012055;28;20001;-73
2020/12/14 05:07:13;;;;;;;;;;;-0.40;99.90;;;;;;5011701;28;19917;-73
2020/12/14 05:09:40;;;;;;;;;;;-0.40;99.90;;;;;;5012178;28;19913;-73
2020/12/14 05:12:16;;;;;;;;;;;-0.40;99.90;;;;;;5016701;28;19996;-73
2020/12/14 05:14:41;;;;;;;;;;;-0.40;99.90;;;;;;5019834;28;19955;-73
2020/12/14 05:17:19;;;;;;;;;;;-0.40;99.90;;;;;;5011563;28;19913;-72
2020/12/14 05:19:45;;;;;;;;;;;-0.40;99.90;;;;;;5011961;28;19952;-73
2020/12/14 05:22:10;;;;;;;;;;;-0.50;99.90;;;;;;5011695;28;20375;-73
2020/12/14 05:24:36;;;;;;;;;;;-0.50;99.90;;;;;;5011941;28;19916;-73
2020/12/14 05:27:01;;;;;;;;;;;-0.50;99.90;;;;;;5011438;28;19909;-73
2020/12/14 05:29:30;;;;;;;;;;;-0.60;99.90;;;;;;5010422;28;20012;-73
2020/12/14 05:31:58;;;;;;;;;;;-0.60;99.90;;;;;;5011473;28;19909;-73
2020/12/14 05:34:29;;;;;;;;;;;-0.60;99.90;;;;;;5011737;28;19913;-74
2020/12/14 05:36:58;;;;;;;;;;;-0.50;99.90;;;;;;5010075;28;19911;-73
2020/12/14 05:39:25;;;;;;;;;;;-0.60;99.90;;;;;;5011739;28;20378;-73
2020/12/14 05:41:51;;;;;;;;;;;-0.50;99.90;;;;;;5015333;28;19917;-73
2020/12/14 05:44:25;;;;;;;;;;;-0.50;99.90;;;;;;5012742;28;19909;-73
2020/12/14 05:46:51;;;;;;;;;;;-0.50;99.90;;;;;;5009910;28;19916;-73
2020/12/14 05:49:17;;;;;;;;;;;-0.50;99.90;;;;;;5011410;28;19914;-73
2020/12/14 05:51:42;;;;;;;;;;;-0.40;99.90;;;;;;5011001;28;19917;-73
2020/12/14 05:54:10;;;;;;;;;;;-0.50;99.90;;;;;;5010997;28;19917;-72
2020/12/14 05:56:37;;;;;;;;;;;-0.50;99.90;;;;;;5011035;28;19971;-73
2020/12/14 05:59:03;;;;;;;;;;;-0.40;99.90;;;;;;5009896;28;19909;-73
2020/12/14 06:01:29;;;;;;;;;;;-0.30;99.90;;;;;;5011460;28;20548;-73
2020/12/14 06:03:55;;;;;;;;;;;-0.30;99.90;;;;;;5011215;28;19914;-73
2020/12/14 06:06:20;;;;;;;;;;;-0.30;99.90;;;;;;5010926;28;19917;-73
2020/12/14 06:08:46;;;;;;;;;;;-0.20;99.90;;;;;;5011370;28;19909;-73
2020/12/14 06:11:12;;;;;;;;;;;-0.20;99.90;;;;;;5011383;28;20007;-74
2020/12/14 06:13:51;;;;;;;;;;;-0.10;99.90;;;;;;5027972;28;19936;-73
2020/12/14 06:16:39;;;;;;;;;;;-0.10;99.90;;;;;;5030378;28;19909;-73
2020/12/14 06:19:05;;;;;;;;;;;-0.10;99.90;;;;;;5031032;28;19914;-73
2020/12/14 06:21:37;;;;;;;;;;;-0.10;99.90;;;;;;5030821;28;19913;-73
2020/12/14 06:24:05;;;;;;;;;;;-0.10;99.90;;;;;;5030757;28;19909;-72
2020/12/14 06:26:32;;;;;;;;;;;-0.10;99.90;;;;;;5030441;28;19920;-73
2020/12/14 06:28:57;;;;;;;;;;;-0.10;99.90;;;;;;5029522;28;20358;-73
2020/12/14 06:31:35;;;;;;;;;;;0.00;99.90;;;;;;5030854;28;19963;-73
2020/12/14 06:34:05;;;;;;;;;;;0.10;99.90;;;;;;5029611;28;19909;-73
2020/12/14 06:36:38;;;;;;;;;;;0.10;99.90;;;;;;5030361;28;20320;-72
2020/12/14 06:39:23;;;;;;;;;;;0.20;99.90;;;;;;5029668;28;19909;-73
2020/12/14 06:41:48;;;;;;;;;;;0.20;99.90;;;;;;5030712;28;20560;-74
2020/12/14 06:44:15;;;;;;;;;;;0.20;99.90;;;;;;5012747;28;19910;-73
2020/12/14 06:46:40;;;;;;;;;;;0.20;99.90;;;;;;5010708;28;19963;-73
2020/12/14 06:49:09;;;;;;;;;;;0.10;99.90;;;;;;5011269;28;19913;-73
2020/12/14 06:51:48;;;;;;;;;;;0.10;99.90;;;;;;5009663;28;19971;-73
2020/12/14 06:54:34;;;;;;;;;;;0.10;99.90;;;;;;5011296;28;19913;-73
2020/12/14 06:57:01;;;;;;;;;;;0.10;99.90;;;;;;5010396;28;19913;-73
2020/12/14 06:59:30;;;;;;;;;;;0.10;99.90;;;;;;5010818;28;19913;-72
2020/12/14 07:01:57;;;;;;;;;;;0.10;99.90;;;;;;5010855;28;19914;-73
2020/12/14 07:04:28;;;;;;;;;;;0.10;99.90;;;;;;5012711;28;19910;-73
2020/12/14 07:06:54;;;;;;;;;;;0.10;99.90;;;;;;5012915;28;19909;-73
2020/12/14 07:09:27;;;;;;;;;;;0.10;99.90;;;;;;5014422;28;19913;-73
2020/12/14 07:12:13;;;;;;;;;;;0.00;99.90;;;;;;5018426;28;19959;-73
2020/12/14 07:14:51;;;;;;;;;;;0.00;99.90;;;;;;5033613;28;19909;-73
2020/12/14 07:17:29;;;;;;;;;;;0.00;99.90;;;;;;5033643;28;20384;-73
2020/12/14 07:19:56;;;;;;;;;;;0.00;99.90;;;;;;5032786;28;19995;-73
2020/12/14 07:22:22;;;;;;;;;;;0.00;99.90;;;;;;5032275;28;20370;-74
2020/12/14 07:24:59;;;;;;;;;;;0.00;99.90;;;;;;5032482;28;19913;-72
2020/12/14 07:27:25;;;;;;;;;;;0.00;99.90;;;;;;5033129;28;20377;-73
2020/12/14 07:29:50;;;;;;;;;;;-0.10;99.90;;;;;;5030996;28;19909;-73
2020/12/14 07:32:16;;;;;;;;;;;-0.10;99.90;;;;;;5033785;28;19916;-73
2020/12/14 07:34:54;;;;;;;;;;;-0.10;99.90;;;;;;5033750;28;20606;-72
2020/12/14 07:37:21;;;;;;;;;;;0.00;99.90;;;;;;5017092;28;20387;-72
2020/12/14 07:39:47;;;;;;;;;;;0.00;99.90;;;;;;5014062;28;19917;-72
2020/12/14 07:42:21;;;;;;;;;;;-0.10;99.90;;;;;;5020648;28;19917;-73
2020/12/14 07:44:46;;;;;;;;;;;-0.10;99.90;;;;;;5013684;28;19995;-73
2020/12/14 07:47:18;;;;;;;;;;;-0.10;99.90;;;;;;5013309;28;20313;-71
2020/12/14 07:49:44;;;;;;;;;;;-0.10;99.90;;;;;;5013737;28;19971;-71
2020/12/14 07:52:09;;;;;;;;;;;0.00;99.90;;;;;;5012177;28;19909;-71
2020/12/14 07:54:35;;;;;;;;;;;0.00;99.90;;;;;;5012249;28;19909;-72
2020/12/14 07:57:03;;;;;;;;;;;0.00;99.90;;;;;;5022440;28;20369;-71
2020/12/14 07:59:29;;;;;;;;;;;0.00;99.90;;;;;;5031574;28;20520;-72
2020/12/14 08:01:55;;;;;;;;;;;0.10;99.90;;;;;;5015893;28;19928;-73
2020/12/14 08:04:21;;;;;;;;;;;0.10;99.90;;;;;;5014642;28;19909;-75
2020/12/14 08:06:48;;;;;;;;;;;0.20;99.90;;;;;;5031154;28;19921;-72
2020/12/14 08:09:15;;;;;;;;;;;0.20;99.90;;;;;;5025874;28;20788;-72
2020/12/14 08:11:41;;;;;;;;;;;0.30;99.90;;;;;;5029502;28;19913;-72
2020/12/14 08:14:08;;;;;;;;;;;0.30;99.90;;;;;;5019451;28;19916;-73
2020/12/14 08:16:34;;;;;;;;;;;0.40;99.90;;;;;;5025241;28;19909;-72
2020/12/14 08:18:59;;;;;;;;;;;0.40;99.90;;;;;;5011952;28;19920;-72
2020/12/14 08:21:25;;;;;;;;;;;0.40;99.90;;;;;;5011112;28;20370;-71
2020/12/14 08:23:52;;;;;;;;;;;0.40;99.90;;;;;;5011815;28;20000;-72
2020/12/14 08:26:21;;;;;;;;;;;0.50;99.90;;;;;;5010730;28;20337;-72
2020/12/14 08:28:48;;;;;;;;;;;0.50;99.90;;;;;;5011320;28;19914;-73
2020/12/14 08:31:14;;;;;;;;;;;0.60;99.90;;;;;;5014084;28;19913;-72
2020/12/14 08:33:55;;;;;;;;;;;0.80;99.90;;;;;;5021033;28;19955;-73
2020/12/14 08:36:21;;;;;;;;;;;1.00;99.90;;;;;;5026928;28;19909;-72
2020/12/14 08:38:47;;;;;;;;;;;1.30;99.90;;;;;;5016739;28;19996;-72
2020/12/14 08:41:17;;;;;;;;;;;1.60;99.90;;;;;;5020833;28;19924;-72
2020/12/14 08:43:42;;;;;;;;;;;2.10;99.90;;;;;;5029829;28;19916;-73
2020/12/14 08:46:11;;;;;;;;;;;2.60;99.90;;;;;;5024773;28;19913;-75
2020/12/14 08:49:02;;;;;;;;;;;3.20;99.90;;;;;;5029324;28;20175;-73
2020/12/14 08:51:30;;;;;;;;;;;3.80;99.90;;;;;;5024894;28;19917;-73
2020/12/14 08:54:09;;;;;;;;;;;4.60;99.90;;;;;;5027094;28;19936;-73
2020/12/14 08:56:35;;;;;;;;;;;5.10;99.90;;;;;;5015596;28;20682;-73
2020/12/14 08:59:01;;;;;;;;;;;5.70;99.90;;;;;;5024290;28;19955;-73
2020/12/14 09:01:27;;;;;;;;;;;6.40;99.90;;;;;;5025618;28;19925;-73
2020/12/14 09:03:53;;;;;;;;;;;7.00;99.90;;;;;;5023000;28;19913;-74
2020/12/14 09:06:19;;;;;;;;;;;7.60;99.90;;;;;;5018423;28;20055;-74
2020/12/14 09:08:54;;;;;;;;;;;8.00;99.90;;;;;;5024511;28;20101;-73
2020/12/14 09:11:19;;;;;;;;;;;8.40;99.90;;;;;;5029496;28;20350;-73
2020/12/14 09:13:48;;;;;;;;;;;8.80;99.90;;;;;;5017051;28;19956;-73
2020/12/14 09:16:16;;;;;;;;;;;9.40;99.90;;;;;;5025015;28;19916;-74
2020/12/14 09:18:42;;;;;;;;;;;9.90;99.90;;;;;;5023499;28;20366;-74
2020/12/14 09:21:07;;;;;;;;;;;10.30;99.90;;;;;;5025622;28;19975;-74
2020/12/14 09:23:34;;;;;;;;;;;10.50;99.90;;;;;;5030877;28;19940;-74
2020/12/14 09:25:59;;;;;;;;;;;10.80;99.90;;;;;;5029882;28;19965;-74
2020/12/14 09:28:26;;;;;;;;;;;10.90;99.90;;;;;;5025571;28;19948;-74
2020/12/14 09:30:51;;;;;;;;;;;11.00;99.90;;;;;;5010291;28;19956;-74
2020/12/14 09:33:16;;;;;;;;;;;11.20;99.90;;;;;;5024183;28;19913;-77
2020/12/14 09:35:42;;;;;;;;;;;11.40;99.90;;;;;;5018882;28;20297;-74
2020/12/14 09:38:07;;;;;;;;;;;11.50;99.90;;;;;;5008037;28;19973;-74
2020/12/14 09:40:33;;;;;;;;;;;11.40;99.90;;;;;;5027272;28;19949;-75
2020/12/14 09:42:58;;;;;;;;;;;11.40;99.90;;;;;;5016118;28;20005;-74
2020/12/14 09:45:24;;;;;;;;;;;11.20;99.90;;;;;;5007885;28;19909;-76
2020/12/14 09:47:49;;;;;;;;;;;11.00;99.90;;;;;;5019796;28;19960;-74
2020/12/14 09:50:15;;;;;;;;;;;10.80;99.90;;;;;;5014924;28;19917;-74
2020/12/14 09:52:40;;;;;;;;;;;10.70;99.90;;;;;;5026333;28;20002;-74
2020/12/14 09:55:06;;;;;;;;;;;10.80;99.90;;;;;;5014581;28;19916;-74
2020/12/14 09:57:32;;;;;;;;;;;11.00;99.90;;;;;;5017852;28;19910;-76
2020/12/14 09:59:57;;;;;;;;;;;11.40;99.90;;;;;;5024067;28;19925;-77
2020/12/14 10:02:23;;;;;;;;;;;11.70;99.90;;;;;;5027727;28;19920;-74
2020/12/14 10:04:48;;;;;;;;;;;11.80;99.90;;;;;;5029697;28;20469;-74
2020/12/14 10:07:14;;;;;;;;;;;11.90;99.90;;;;;;5030526;28;19909;-75
2020/12/14 10:09:39;;;;;;;;;;;11.90;99.90;;;;;;5018022;28;19952;-77
2020/12/14 10:12:05;;;;;;;;;;;12.00;99.90;;;;;;5029355;28;19909;-74
2020/12/14 10:14:31;;;;;;;;;;;12.10;99.90;;;;;;5010955;28;19910;-74
2020/12/14 10:16:56;;;;;;;;;;;12.10;99.90;;;;;;5011256;28;20347;-74
2020/12/14 10:19:22;;;;;;;;;;;12.30;99.90;;;;;;5010543;28;19964;-76
2020/12/14 10:21:47;;;;;;;;;;;12.50;99.90;;;;;;5017651;28;19913;-74
2020/12/14 10:24:13;;;;;;;;;;;12.40;99.90;;;;;;5019752;28;20336;-74
2020/12/14 10:26:38;;;;;;;;;;;12.40;99.90;;;;;;5027730;28;19913;-78
2020/12/14 10:29:04;;;;;;;;;;;12.20;99.90;;;;;;5019133;28;20354;-74
2020/12/14 10:31:29;;;;;;;;;;;12.20;99.90;;;;;;5029740;28;20416;-74
2020/12/14 10:33:57;;;;;;;;;;;12.00;99.90;;;;;;5030654;28;19951;-74
2020/12/14 10:36:23;;;;;;;;;;;11.80;99.90;;;;;;5030903;28;19963;-74
2020/12/14 10:38:49;;;;;;;;;;;11.60;99.90;;;;;;5018076;28;19956;-75
2020/12/14 10:41:17;;;;;;;;;;;11.50;99.90;;;;;;5016256;28;19913;-77
2020/12/14 10:43:42;;;;;;;;;;;11.50;99.90;;;;;;5022606;28;20032;-74
2020/12/14 10:46:08;;;;;;;;;;;11.40;99.90;;;;;;5014627;28;19913;-74
2020/12/14 10:48:33;;;;;;;;;;;11.40;99.90;;;;;;5014807;28;19910;-74
2020/12/14 10:50:59;;;;;;;;;;;11.40;99.90;;;;;;5014744;28;19968;-74
2020/12/14 10:53:24;;;;;;;;;;;11.30;99.90;;;;;;5014717;28;20057;-74
2020/12/14 10:55:50;;;;;;;;;;;11.10;99.90;;;;;;5014496;28;19909;-74
2020/12/14 10:58:15;;;;;;;;;;;11.10;99.90;;;;;;5014965;28;19917;-74
2020/12/14 11:00:41;;;;;;;;;;;11.20;99.90;;;;;;5014574;28;19910;-75
2020/12/14 11:03:06;;;;;;;;;;;11.10;99.90;;;;;;5011288;28;19910;-75
2020/12/14 11:05:32;;;;;;;;;;;11.20;99.90;;;;;;5014276;28;19916;-74
2020/12/14 11:07:58;;;;;;;;;;;11.10;99.90;;;;;;5013117;28;19909;-74
2020/12/14 11:10:23;;;;;;;;;;;11.10;99.90;;;;;;5014907;28;19910;-74
2020/12/14 11:12:49;;;;;;;;;;;11.20;99.90;;;;;;5021354;28;20458;-74
2020/12/14 11:15:14;;;;;;;;;;;11.30;99.90;;;;;;5021351;28;19909;-74
2020/12/14 11:17:40;;;;;;;;;;;11.20;99.90;;;;;;5033684;28;19963;-74
2020/12/14 11:20:08;;;;;;;;;;;11.20;99.90;;;;;;5034155;28;19909;-75
2020/12/14 11:22:34;;;;;;;;;;;11.10;99.90;;;;;;5033797;28;19920;-74
2020/12/14 11:25:00;;;;;;;;;;;10.90;99.90;;;;;;5034017;28;19913;-76
2020/12/14 11:27:25;;;;;;;;;;;10.90;99.90;;;;;;5033737;28;19910;-75
2020/12/14 11:29:51;;;;;;;;;;;10.90;99.90;;;;;;5033973;28;19909;-74
2020/12/14 11:32:16;;;;;;;;;;;10.90;99.90;;;;;;5033675;28;20384;-74
2020/12/14 11:34:42;;;;;;;;;;;10.90;99.90;;;;;;5033810;28;19913;-74
2020/12/14 11:37:07;;;;;;;;;;;10.90;99.90;;;;;;5026802;28;19909;-74
2020/12/14 11:39:33;;;;;;;;;;;10.90;99.90;;;;;;5013822;28;20359;-74
2020/12/14 11:41:58;;;;;;;;;;;10.90;99.90;;;;;;5017123;28;19913;-74
2020/12/14 11:44:24;;;;;;;;;;;11.00;99.90;;;;;;5015557;28;19964;-75
2020/12/14 11:46:52;;;;;;;;;;;10.90;99.90;;;;;;5013229;28;19909;-74
2020/12/14 11:49:21;;;;;;;;;;;10.90;99.90;;;;;;5013599;28;20095;-74
2020/12/14 11:51:49;;;;;;;;;;;10.90;99.90;;;;;;5017381;28;20441;-74
2020/12/14 11:54:16;;;;;;;;;;;11.00;99.90;;;;;;5033057;28;19963;-74
2020/12/14 11:56:43;;;;;;;;;;;10.90;99.90;;;;;;5028011;28;19913;-74
2020/12/14 11:59:09;;;;;;;;;;;10.80;99.90;;;;;;5033209;28;19924;-74
2020/12/14 12:01:34;;;;;;;;;;;10.80;99.90;;;;;;5026746;28;19913;-75
2020/12/14 12:03:59;;;;;;;;;;;10.80;99.90;;;;;;5013494;28;19913;-74
2020/12/14 12:06:26;;;;;;;;;;;10.80;99.90;;;;;;5011760;28;19916;-74
2020/12/14 12:08:51;;;;;;;;;;;10.90;99.90;;;;;;5013290;28;20004;-74
2020/12/14 12:11:17;;;;;;;;;;;11.00;99.90;;;;;;5013576;28;20005;-74
2020/12/14 12:13:42;;;;;;;;;;;11.10;99.90;;;;;;5030977;28;19917;-77
2020/12/14 12:16:08;;;;;;;;;;;11.20;99.90;;;;;;5032193;28;19909;-74
2020/12/14 12:18:33;;;;;;;;;;;11.20;99.90;;;;;;5018924;28;19933;-74
2020/12/14 12:20:59;;;;;;;;;;;11.20;99.90;;;;;;5019984;28;19913;-77
2020/12/14 12:23:24;;;;;;;;;;;11.30;99.90;;;;;;5011230;28;20389;-74
2020/12/14 12:25:50;;;;;;;;;;;11.20;99.90;;;;;;5029354;28;20182;-74
2020/12/14 12:28:15;;;;;;;;;;;11.20;99.90;;;;;;5026964;28;19916;-74
2020/12/14 12:30:41;;;;;;;;;;;11.20;99.90;;;;;;5028098;28;19923;-76
2020/12/14 12:33:06;;;;;;;;;;;11.10;99.90;;;;;;5012597;28;19910;-74
2020/12/14 12:35:32;;;;;;;;;;;11.10;99.90;;;;;;5013146;28;20440;-75
2020/12/14 12:37:58;;;;;;;;;;;11.00;99.90;;;;;;5025300;28;20286;-77
2020/12/14 12:40:23;;;;;;;;;;;11.00;99.90;;;;;;5010612;28;19910;-74
2020/12/14 12:42:49;;;;;;;;;;;10.90;99.90;;;;;;5021610;28;19917;-76
2020/12/14 12:45:14;;;;;;;;;;;10.80;99.90;;;;;;5016717;28;20357;-74
2020/12/14 12:47:40;;;;;;;;;;;10.70;99.90;;;;;;5020275;28;19909;-73
2020/12/14 12:50:05;;;;;;;;;;;10.70;99.90;;;;;;5010777;28;19979;-77
2020/12/14 12:52:31;;;;;;;;;;;10.60;99.90;;;;;;5026815;28;19909;-73
2020/12/14 12:54:56;;;;;;;;;;;10.60;99.90;;;;;;5028996;28;19909;-73
2020/12/14 12:57:22;;;;;;;;;;;10.60;99.90;;;;;;5029856;28;20384;-74
2020/12/14 12:59:47;;;;;;;;;;;10.60;99.90;;;;;;5032322;28;19956;-74
2020/12/14 13:02:13;;;;;;;;;;;10.60;99.90;;;;;;5029992;28;19913;-73
2020/12/14 13:04:38;;;;;;;;;;;10.60;99.90;;;;;;5031259;28;19909;-74
2020/12/14 13:07:04;;;;;;;;;;;10.60;99.90;;;;;;5010164;28;19972;-75
2020/12/14 13:09:30;;;;;;;;;;;10.50;99.90;;;;;;5020773;28;20263;-73
2020/12/14 13:11:56;;;;;;;;;;;10.50;99.90;;;;;;5015315;28;19912;-74
2020/12/14 13:14:21;;;;;;;;;;;10.40;99.90;;;;;;5012640;28;19916;-74
2020/12/14 13:16:47;;;;;;;;;;;10.40;99.90;;;;;;5019728;28;19909;-74
2020/12/14 13:19:12;;;;;;;;;;;10.40;99.90;;;;;;5016280;28;19909;-74
2020/12/14 13:21:38;;;;;;;;;;;10.30;99.90;;;;;;5031682;28;19913;-74
2020/12/14 13:24:04;;;;;;;;;;;10.30;99.90;;;;;;5023628;28;20397;-74
2020/12/14 13:26:31;;;;;;;;;;;10.30;99.90;;;;;;5020303;28;19917;-74
2020/12/14 13:28:57;;;;;;;;;;;10.30;99.90;;;;;;5023938;28;19909;-74
2020/12/14 13:31:26;;;;;;;;;;;10.20;99.90;;;;;;5023177;28;20449;-75
2020/12/14 13:33:53;;;;;;;;;;;10.20;99.90;;;;;;5010662;28;20338;-77
2020/12/14 13:36:19;;;;;;;;;;;10.20;99.90;;;;;;5011011;28;19909;-77
2020/12/14 13:38:45;;;;;;;;;;;10.20;99.90;;;;;;5016869;28;20370;-74
2020/12/14 13:41:11;;;;;;;;;;;10.20;99.90;;;;;;5027273;28;19920;-76
2020/12/14 13:43:37;;;;;;;;;;;10.20;99.90;;;;;;5011207;28;19910;-74
2020/12/14 13:46:04;;;;;;;;;;;10.20;99.90;;;;;;5012045;28;20362;-72
2020/12/14 13:48:31;;;;;;;;;;;10.20;99.90;;;;;;5011725;28;20154;-75
2020/12/14 13:50:56;;;;;;;;;;;10.20;99.90;;;;;;5011445;28;20000;-72
2020/12/14 13:53:22;;;;;;;;;;;10.10;99.90;;;;;;5011528;28;19952;-74
2020/12/14 13:55:48;;;;;;;;;;;10.10;99.90;;;;;;5011680;28;19916;-74
2020/12/14 13:58:13;;;;;;;;;;;10.00;99.90;;;;;;5009841;28;20259;-72
2020/12/14 14:00:39;;;;;;;;;;;9.90;99.90;;;;;;5011552;28;19921;-75
2020/12/14 14:03:04;;;;;;;;;;;9.90;99.90;;;;;;5008104;28;19967;-72
2020/12/14 14:05:30;;;;;;;;;;;9.80;99.90;;;;;;5015753;28;19996;-72
2020/12/14 14:07:55;;;;;;;;;;;9.70;99.90;;;;;;5020184;28;19909;-73
2020/12/14 14:10:21;;;;;;;;;;;9.70;99.90;;;;;;5011394;28;19909;-72
2020/12/14 14:12:46;;;;;;;;;;;9.70;99.90;;;;;;5018119;28;19910;-72
2020/12/14 14:15:12;;;;;;;;;;;9.70;99.90;;;;;;5014697;28;19909;-72
2020/12/14 14:17:37;;;;;;;;;;;9.70;99.90;;;;;;5015082;28;19979;-75
2020/12/14 14:20:03;;;;;;;;;;;9.70;99.90;;;;;;5015422;28;19909;-74